Time;durP1;ratioP1;P1;durP2;ratioP2;P2;SDS_P1;SDS_P2;PMS_P1;PMS_P2;Temp;Humidity;BMP_temperature;BMP_pressure;BME280_temperature;BME280_humidity;BME280_pressure;Samples;Min_cycle;Max_cycle;Signal;HPM_P1;HPM_P2
2024/01/09 00:00:35;;;;;;;10.75;6.93;;;;;;;14.44;42.71;103590.22;4944490;29;20102;-34
2024/01/09 00:03:01;;;;;;;13.13;8.20;;;;;;;14.42;42.40;103587.59;4948508;28;20530;-33
2024/01/09 00:05:29;;;;;;;12.05;7.18;;;;;;;14.48;43.20;103581.16;4948094;29;20357;-33
2024/01/09 00:07:56;;;;;;;10.88;7.13;;;;;;;14.55;42.88;103582.66;4947894;29;20055;-33
2024/01/09 00:10:23;;;;;;;10.40;7.47;;;;;;;14.62;42.90;103583.28;4947013;28;20478;-35
2024/01/09 00:12:50;;;;;;;10.95;7.53;;;;;;;14.72;42.48;103573.97;4946500;28;20055;-34
2024/01/09 00:15:16;;;;;;;11.20;6.88;;;;;;;14.84;41.99;103585.94;4944908;29;20060;-35
2024/01/09 00:17:43;;;;;;;9.68;6.78;;;;;;;14.94;42.59;103577.44;4946511;29;20388;-34
2024/01/09 00:20:10;;;;;;;10.73;6.85;;;;;;;15.03;42.44;103582.41;4947349;28;20050;-34
2024/01/09 00:22:37;;;;;;;11.07;7.15;;;;;;;15.10;42.51;103574.97;4945883;28;20054;-33
2024/01/09 00:25:05;;;;;;;9.40;6.97;;;;;;;15.17;41.70;103579.09;4946242;28;20051;-35
2024/01/09 00:27:32;;;;;;;9.00;6.38;;;;;;;15.22;41.46;103586.91;4943506;28;20055;-33
2024/01/09 00:29:59;;;;;;;10.07;6.38;;;;;;;15.22;42.08;103573.56;4946498;29;20114;-34
2024/01/09 00:32:27;;;;;;;8.20;5.88;;;;;;;15.18;41.73;103579.97;4943966;28;20110;-34
2024/01/09 00:34:53;;;;;;;9.52;6.45;;;;;;;15.10;42.28;103580.31;4945228;28;20491;-35
2024/01/09 00:37:20;;;;;;;9.23;5.80;;;;;;;15.05;42.53;103577.84;4946822;29;20078;-34
2024/01/09 00:39:48;;;;;;;9.23;6.20;;;;;;;15.02;41.81;103582.44;4944438;28;20058;-33
2024/01/09 00:42:15;;;;;;;8.90;5.60;;;;;;;15.02;42.60;103575.28;4942245;29;20062;-35
2024/01/09 00:44:41;;;;;;;8.63;5.47;;;;;;;15.00;41.53;103570.97;4936619;29;20138;-35
2024/01/09 00:47:08;;;;;;;10.05;6.60;;;;;;;14.98;42.14;103573.69;4941420;29;20051;-34
2024/01/09 00:49:35;;;;;;;8.77;5.95;;;;;;;14.96;41.82;103572.03;4944745;29;20403;-37
2024/01/09 00:52:02;;;;;;;8.45;5.50;;;;;;;14.93;41.87;103572.16;4948218;28;20086;-33
2024/01/09 00:54:29;;;;;;;8.23;5.22;;;;;;;14.88;42.45;103568.84;4945127;29;20487;-33
2024/01/09 00:56:55;;;;;;;8.45;5.60;;;;;;;14.79;42.35;103565.63;4945855;29;20130;-33
2024/01/09 00:59:22;;;;;;;9.50;6.25;;;;;;;14.71;42.30;103561.53;4943701;29;20134;-33
2024/01/09 01:01:52;;;;;;;7.32;5.28;;;;;;;14.60;42.33;103559.34;4946102;28;20048;-33
2024/01/09 01:04:18;;;;;;;7.32;5.38;;;;;;;14.52;42.35;103572.13;4945897;29;20136;-33
2024/01/09 01:06:45;;;;;;;8.05;5.80;;;;;;;14.45;42.11;103566.13;4947192;29;20058;-34
2024/01/09 01:09:12;;;;;;;7.65;5.28;;;;;;;14.39;42.55;103566.41;4942726;28;20347;-34
2024/01/09 01:11:40;;;;;;;8.25;5.22;;;;;;;14.40;42.47;103564.59;4945945;29;20059;-34
2024/01/09 01:14:06;;;;;;;6.30;4.75;;;;;;;14.50;42.17;103568.63;4945361;29;20051;-34
2024/01/09 01:16:33;;;;;;;7.63;4.90;;;;;;;14.63;42.11;103574.31;4944099;28;20450;-33
2024/01/09 01:19:01;;;;;;;7.63;5.18;;;;;;;14.78;41.94;103569.22;4943575;28;20142;-33
2024/01/09 01:21:28;;;;;;;6.13;4.32;;;;;;;14.90;41.69;103567.81;4944510;29;20059;-34
2024/01/09 01:23:54;;;;;;;6.68;4.75;;;;;;;14.99;41.69;103571.88;4944260;28;20142;-35
2024/01/09 01:26:21;;;;;;;6.22;4.80;;;;;;;15.07;41.49;103569.75;4947862;28;20051;-33
2024/01/09 01:28:48;;;;;;;6.78;4.50;;;;;;;15.12;41.15;103578.44;4946868;29;20069;-33
2024/01/09 01:31:14;;;;;;;6.43;4.68;;;;;;;15.12;41.49;103573.09;4951538;28;20113;-33
2024/01/09 01:33:41;;;;;;;5.57;4.28;;;;;;;15.08;42.01;103570.66;4943327;29;20417;-35
2024/01/09 01:36:14;;;;;;;7.45;4.97;;;;;;;15.00;41.67;103571.84;4948838;29;20059;-34
2024/01/09 01:38:42;;;;;;;6.88;4.70;;;;;;;14.97;42.01;103566.63;4947334;28;20114;-33
2024/01/09 01:41:09;;;;;;;6.57;4.70;;;;;;;14.95;41.58;103571.16;4950850;28;20059;-33
2024/01/09 01:43:36;;;;;;;6.95;4.50;;;;;;;14.96;42.33;103574.72;4949976;28;20134;-34
2024/01/09 01:46:04;;;;;;;7.60;4.60;;;;;;;14.95;42.50;103567.63;4949751;28;20055;-33
2024/01/09 01:48:31;;;;;;;6.05;4.07;;;;;;;14.94;41.82;103573.91;4949154;29;20051;-34
2024/01/09 01:51:00;;;;;;;5.35;3.85;;;;;;;14.92;42.59;103568.63;4946888;29;20067;-34
2024/01/09 01:53:29;;;;;;;6.10;4.38;;;;;;;14.88;42.21;103560.81;4947537;29;20082;-33
2024/01/09 01:55:55;;;;;;;6.20;4.40;;;;;;;14.81;41.74;103555.72;4949608;29;20106;-34
2024/01/09 01:58:26;;;;;;;7.28;4.75;;;;;;;14.75;41.90;103557.78;4948325;29;20055;-34
2024/01/09 02:00:53;;;;;;;6.30;4.00;;;;;;;14.65;42.49;103552.00;4951585;29;20380;-34
2024/01/09 02:03:20;;;;;;;6.95;4.60;;;;;;;14.58;42.72;103558.50;4948252;29;20043;-32
2024/01/09 02:05:48;;;;;;;6.95;4.60;;;;;;;14.51;42.65;103562.38;4949829;28;20547;-33
2024/01/09 02:08:19;;;;;;;5.60;4.28;;;;;;;14.44;42.51;103556.41;4946982;28;20062;-36
2024/01/09 02:10:46;;;;;;;5.15;3.67;;;;;;;14.45;42.66;103559.94;4946496;29;20520;-33
2024/01/09 02:13:12;;;;;;;4.78;3.47;;;;;;;14.49;42.50;103564.25;4946645;29;20138;-32
2024/01/09 02:15:39;;;;;;;7.22;4.40;;;;;;;14.54;42.49;103555.09;4950218;28;20344;-32
2024/01/09 02:18:06;;;;;;;5.80;4.32;;;;;;;14.64;42.50;103562.75;4948998;29;20140;-34
2024/01/09 02:20:33;;;;;;;4.90;3.67;;;;;;;14.76;42.38;103555.06;4944632;28;20090;-34
2024/01/09 02:23:00;;;;;;;6.05;3.80;;;;;;;14.88;42.57;103553.69;4949488;29;20063;-35
2024/01/09 02:25:27;;;;;;;5.20;3.78;;;;;;;14.97;42.23;103552.41;4947459;29;20039;-33
2024/01/09 02:28:06;;;;;;;4.85;3.70;;;;;;;15.06;41.66;103565.34;4948205;28;20055;-33
2024/01/09 02:30:33;;;;;;;5.32;4.07;;;;;;;15.13;41.86;103558.81;4945149;29;20098;-34
2024/01/09 02:33:00;;;;;;;4.95;3.40;;;;;;;15.15;41.79;103559.59;4948240;28;20055;-33
2024/01/09 02:35:27;;;;;;;5.20;3.30;;;;;;;15.14;41.86;103559.66;4944049;29;20047;-33
2024/01/09 02:37:54;;;;;;;6.28;3.85;;;;;;;15.09;42.06;103562.53;4946999;28;20143;-34
2024/01/09 02:40:22;;;;;;;4.63;3.28;;;;;;;15.03;41.96;103558.34;4944315;29;20121;-33
2024/01/09 02:42:49;;;;;;;4.53;3.42;;;;;;;14.98;42.47;103564.81;4945529;29;20053;-34
2024/01/09 02:45:16;;;;;;;4.47;3.35;;;;;;;14.98;42.08;103554.13;4943651;29;20782;-33
2024/01/09 02:47:43;;;;;;;4.90;3.42;;;;;;;14.97;42.32;103547.94;4944896;29;20075;-34
2024/01/09 02:50:09;;;;;;;3.55;3.13;;;;;;;14.97;42.47;103547.06;4946419;29;20379;-34
2024/01/09 02:52:36;;;;;;;3.70;2.78;;;;;;;14.95;41.57;103551.59;4943505;29;20054;-34
2024/01/09 02:55:03;;;;;;;5.05;3.65;;;;;;;14.93;41.49;103549.00;4944258;29;20113;-33
2024/01/09 02:57:29;;;;;;;6.05;3.15;;;;;;;14.90;41.56;103550.94;4943138;29;20078;-34
2024/01/09 02:59:56;;;;;;;4.57;3.17;;;;;;;14.85;41.44;103548.47;4943425;28;20511;-34
2024/01/09 03:02:23;;;;;;;4.07;3.30;;;;;;;14.78;42.27;103542.50;4944339;29;20154;-33
2024/01/09 03:04:49;;;;;;;4.35;3.22;;;;;;;14.70;41.44;103547.31;4943328;29;20044;-35
2024/01/09 03:07:16;;;;;;;4.43;3.28;;;;;;;14.60;41.92;103537.13;4940544;29;20761;-34
2024/01/09 03:09:43;;;;;;;5.13;4.10;;;;;;;14.51;42.45;103541.91;4945770;29;20055;-35
2024/01/09 03:12:10;;;;;;;4.30;3.00;;;;;;;14.47;42.61;103542.03;4941441;28;20047;-34
2024/01/09 03:14:37;;;;;;;5.57;3.40;;;;;;;14.45;42.85;103539.44;4943324;28;20083;-35
2024/01/09 03:17:07;;;;;;;4.50;3.20;;;;;;;14.53;41.93;103537.34;4941735;29;20628;-33
2024/01/09 03:19:34;;;;;;;3.42;3.00;;;;;;;14.66;42.61;103547.50;4940511;29;20086;-34
2024/01/09 03:22:00;;;;;;;4.32;3.15;;;;;;;14.79;42.48;103541.59;4945598;28;20067;-33
2024/01/09 03:24:27;;;;;;;3.67;2.88;;;;;;;14.91;42.20;103542.84;4949453;29;20158;-34
2024/01/09 03:26:53;;;;;;;3.95;3.03;;;;;;;15.00;42.03;103536.25;4945285;29;20059;-34
2024/01/09 03:29:20;;;;;;;3.58;2.80;;;;;;;15.06;42.05;103536.81;4947390;28;20057;-34
2024/01/09 03:31:47;;;;;;;3.75;3.03;;;;;;;15.12;40.94;103537.50;4945798;29;20051;-36
2024/01/09 03:34:13;;;;;;;3.67;2.65;;;;;;;15.13;40.83;103541.91;4946586;29;20161;-33
2024/01/09 03:36:43;;;;;;;4.75;2.92;;;;;;;15.07;41.71;103537.69;4947187;29;20059;-33
2024/01/09 03:39:11;;;;;;;4.10;2.80;;;;;;;15.02;41.73;103529.03;4941458;29;20052;-34
2024/01/09 03:41:38;;;;;;;4.32;3.15;;;;;;;14.97;41.14;103536.38;4940179;29;20570;-35
2024/01/09 03:44:04;;;;;;;3.72;2.90;;;;;;;14.92;41.07;103535.72;4941033;29;20513;-34
2024/01/09 03:46:31;;;;;;;3.20;2.65;;;;;;;14.90;41.35;103541.13;4940467;28;20399;-33
2024/01/09 03:48:58;;;;;;;4.05;3.00;;;;;;;14.91;41.48;103526.81;4943556;28;20427;-34
2024/01/09 03:51:24;;;;;;;4.03;2.88;;;;;;;14.89;41.43;103527.84;4948261;28;20055;-34
2024/01/09 03:53:51;;;;;;;3.85;2.67;;;;;;;14.88;41.78;103526.97;4944188;29;20087;-34
2024/01/09 03:56:17;;;;;;;2.95;2.38;;;;;;;14.86;42.02;103528.84;4944351;28;20043;-33
2024/01/09 03:58:44;;;;;;;5.60;3.08;;;;;;;14.82;41.00;103525.41;4943859;28;20110;-33
2024/01/09 04:01:11;;;;;;;3.55;2.50;;;;;;;14.76;41.72;103516.84;4941416;29;20087;-34
2024/01/09 04:03:37;;;;;;;3.53;2.35;;;;;;;14.67;41.32;103515.41;4943538;29;20062;-34
2024/01/09 04:06:04;;;;;;;2.85;2.35;;;;;;;14.61;41.75;103526.38;4946421;28;20497;-33
2024/01/09 04:08:31;;;;;;;3.58;2.58;;;;;;;14.57;42.03;103511.41;4947853;29;20051;-33
2024/01/09 04:10:57;;;;;;;4.43;2.78;;;;;;;14.50;41.86;103520.59;4941119;29;20067;-33
2024/01/09 04:13:24;;;;;;;3.15;2.50;;;;;;;14.48;41.87;103517.97;4945794;29;20202;-34
2024/01/09 04:15:50;;;;;;;3.83;2.97;;;;;;;14.54;41.55;103503.53;4943200;28;20051;-34
2024/01/09 04:18:17;;;;;;;3.08;2.60;;;;;;;14.65;42.14;103511.09;4946155;29;20130;-33
2024/01/09 04:20:44;;;;;;;3.70;2.75;;;;;;;14.77;41.84;103502.53;4941581;29;20146;-33
2024/01/09 04:23:11;;;;;;;3.58;2.53;;;;;;;14.88;41.73;103505.63;4942350;29;20669;-35
2024/01/09 04:25:38;;;;;;;3.00;2.13;;;;;;;14.96;41.21;103511.47;4939987;29;20062;-35
2024/01/09 04:28:05;;;;;;;3.97;2.47;;;;;;;15.05;41.39;103502.19;4943897;29;20450;-35
2024/01/09 04:30:31;;;;;;;3.90;2.72;;;;;;;15.12;40.71;103510.81;4945728;28;20055;-33
2024/01/09 04:32:58;;;;;;;2.88;2.20;;;;;;;15.15;40.49;103508.81;4948118;28;20059;-34
2024/01/09 04:35:25;;;;;;;3.05;2.30;;;;;;;15.14;40.41;103511.59;4947117;29;20110;-34
2024/01/09 04:37:51;;;;;;;2.72;1.98;;;;;;;15.08;40.45;103511.88;4945992;28;20478;-36
2024/01/09 04:40:18;;;;;;;2.75;2.22;;;;;;;15.00;41.12;103510.41;4941941;28;20142;-34
2024/01/09 04:42:44;;;;;;;3.35;2.40;;;;;;;14.96;41.35;103511.47;4944184;28;20051;-34
2024/01/09 04:45:11;;;;;;;3.15;2.50;;;;;;;14.93;40.61;103502.75;4944983;29;20047;-33
2024/01/09 04:47:38;;;;;;;3.72;2.50;;;;;;;14.90;41.49;103509.06;4946373;28;20051;-34
2024/01/09 04:50:05;;;;;;;2.85;2.15;;;;;;;14.89;41.39;103511.81;4944957;28;20083;-35
2024/01/09 04:52:31;;;;;;;2.72;2.15;;;;;;;14.89;40.94;103506.47;4946951;29;20047;-34
2024/01/09 04:54:58;;;;;;;2.63;1.95;;;;;;;14.87;41.53;103517.22;4943681;28;20690;-33
2024/01/09 04:57:24;;;;;;;2.67;2.08;;;;;;;14.86;40.84;103514.63;4944496;28;20122;-34
2024/01/09 04:59:51;;;;;;;2.72;2.10;;;;;;;14.80;40.75;103513.09;4946131;28;20490;-33
2024/01/09 05:02:18;;;;;;;3.83;2.53;;;;;;;14.74;41.60;103519.56;4948721;29;20047;-33
2024/01/09 05:04:45;;;;;;;3.15;2.50;;;;;;;14.67;40.71;103523.41;4948669;28;20450;-34
2024/01/09 05:07:12;;;;;;;3.00;2.33;;;;;;;14.61;40.88;103517.50;4947062;29;20141;-34
2024/01/09 05:09:39;;;;;;;2.60;2.15;;;;;;;14.49;41.26;103514.41;4947421;29;20082;-35
2024/01/09 05:12:05;;;;;;;2.47;2.00;;;;;;;14.49;41.13;103513.53;4949381;28;20059;-34
2024/01/09 05:14:32;;;;;;;2.67;2.20;;;;;;;14.56;41.21;103515.88;4949325;28;20051;-35
2024/01/09 05:16:59;;;;;;;3.33;2.35;;;;;;;14.69;41.38;103516.22;4949107;29;20086;-34
2024/01/09 05:19:27;;;;;;;4.47;2.63;;;;;;;14.80;40.73;103505.09;4947710;29;20506;-34
2024/01/09 05:21:54;;;;;;;3.92;2.70;;;;;;;14.90;40.86;103501.06;4946131;28;20056;-34
2024/01/09 05:24:20;;;;;;;4.13;3.00;;;;;;;15.00;40.08;103513.09;4946994;29;20052;-34
2024/01/09 05:26:47;;;;;;;4.38;3.13;;;;;;;15.08;40.60;103514.56;4950021;29;20051;-33
2024/01/09 05:29:13;;;;;;;4.75;3.45;;;;;;;15.12;40.31;103514.34;4945781;29;20839;-34
2024/01/09 05:31:44;;;;;;;5.38;3.47;;;;;;;15.17;40.53;103517.66;4946569;29;20055;-33
2024/01/09 05:34:11;;;;;;;4.57;3.33;;;;;;;15.16;40.02;103528.44;4944511;29;20514;-34
2024/01/09 05:36:37;;;;;;;6.03;3.60;;;;;;;15.12;40.14;103526.81;4948560;29;20062;-34
2024/01/09 05:39:04;;;;;;;6.13;4.32;;;;;;;15.03;40.61;103530.75;4946451;29;20729;-34
2024/01/09 05:41:31;;;;;;;5.05;4.03;;;;;;;14.98;41.07;103528.28;4949051;28;20095;-34
2024/01/09 05:43:57;;;;;;;5.43;3.80;;;;;;;14.96;40.42;103523.97;4946663;28;20628;-34
2024/01/09 05:46:24;;;;;;;6.45;4.25;;;;;;;14.95;40.38;103522.22;4945683;29;20134;-34
2024/01/09 05:48:51;;;;;;;5.90;3.85;;;;;;;14.94;40.87;103532.03;4945999;29;20050;-35
2024/01/09 05:51:18;;;;;;;5.88;4.28;;;;;;;14.91;40.29;103526.81;4941131;29;20060;-34
2024/01/09 05:53:46;;;;;;;6.00;4.18;;;;;;;14.88;40.77;103528.78;4947548;29;20090;-34
2024/01/09 05:56:17;;;;;;;6.10;4.38;;;;;;;14.87;41.13;103540.38;4945477;28;20055;-34
2024/01/09 05:58:43;;;;;;;6.15;4.53;;;;;;;14.82;41.19;103538.78;4946359;28;20055;-35
2024/01/09 06:01:11;;;;;;;5.70;4.00;;;;;;;14.77;40.36;103532.78;4945717;29;20059;-33
2024/01/09 06:03:37;;;;;;;8.27;4.50;;;;;;;14.71;40.28;103540.16;4948169;29;20055;-34
2024/01/09 06:06:04;;;;;;;6.22;4.20;;;;;;;14.63;40.26;103535.16;4947929;29;20062;-34
2024/01/09 06:08:31;;;;;;;6.18;4.55;;;;;;;14.52;40.58;103550.78;4949827;28;20138;-34
2024/01/09 06:10:58;;;;;;;6.55;4.55;;;;;;;14.48;40.68;103549.13;4948276;28;20462;-35
2024/01/09 06:13:24;;;;;;;6.68;4.47;;;;;;;14.41;41.15;103544.97;4943453;29;20111;-35
2024/01/09 06:15:51;;;;;;;6.38;4.63;;;;;;;14.38;40.70;103550.44;4943428;29;20079;-37
2024/01/09 06:18:17;;;;;;;7.18;4.82;;;;;;;14.41;41.15;103547.66;4942602;29;20127;-34
2024/01/09 06:20:44;;;;;;;5.97;4.50;;;;;;;14.47;41.12;103550.03;4944967;28;20498;-35
2024/01/09 06:23:11;;;;;;;5.07;3.67;;;;;;;14.53;41.10;103552.50;4943964;29;20176;-35
2024/01/09 06:25:37;;;;;;;6.30;4.70;;;;;;;14.59;40.74;103556.72;4946962;29;20051;-34
2024/01/09 06:28:04;;;;;;;7.40;4.65;;;;;;;14.64;40.96;103552.06;4945266;29;20051;-35
2024/01/09 06:30:34;;;;;;;6.38;4.45;;;;;;;14.68;40.70;103551.00;4948091;29;20051;-34
2024/01/09 06:33:01;;;;;;;6.93;4.40;;;;;;;14.72;40.11;103558.81;4945964;29;20456;-35
2024/01/09 06:35:27;;;;;;;6.10;4.18;;;;;;;14.75;40.25;103561.34;4950084;28;20423;-35
2024/01/09 06:37:54;;;;;;;7.10;4.78;;;;;;;14.76;41.01;103559.56;4948064;29;20059;-34
2024/01/09 06:40:23;;;;;;;7.65;5.22;;;;;;;14.73;41.08;103563.22;4945160;28;20439;-34
2024/01/09 06:42:51;;;;;;;6.72;4.47;;;;;;;14.69;40.81;103569.59;4946546;28;20059;-34
2024/01/09 06:45:17;;;;;;;6.95;4.95;;;;;;;14.65;40.21;103572.47;4946468;28;20047;-34
2024/01/09 06:47:44;;;;;;;7.68;5.13;;;;;;;14.62;41.22;103565.47;4944688;28;20047;-35
2024/01/09 06:50:11;;;;;;;6.50;4.95;;;;;;;14.59;41.08;103560.25;4947581;28;20129;-36
2024/01/09 06:52:56;;;;;;;6.53;4.75;;;;;;;14.58;40.59;103569.19;4946456;29;20054;-34
2024/01/09 06:55:22;;;;;;;6.25;4.03;;;;;;;14.56;40.30;103565.72;4945583;29;20051;-35
2024/01/09 06:57:49;;;;;;;6.07;4.53;;;;;;;14.55;40.51;103564.88;4943692;28;20043;-34
2024/01/09 07:00:17;;;;;;;6.82;4.45;;;;;;;14.55;40.25;103563.97;4944758;28;20465;-35
2024/01/09 07:02:43;;;;;;;6.68;4.82;;;;;;;14.54;40.34;103562.25;4947141;29;20055;-34
2024/01/09 07:05:10;;;;;;;6.05;4.45;;;;;;;14.47;40.96;103568.72;4948483;28;20148;-35
2024/01/09 07:07:37;;;;;;;6.28;4.57;;;;;;;14.45;40.98;103565.28;4945455;28;20435;-34
2024/01/09 07:10:15;;;;;;;6.93;4.65;;;;;;;14.42;40.45;103566.25;4945932;29;20420;-33
2024/01/09 07:12:41;;;;;;;6.72;4.82;;;;;;;14.45;40.94;103560.78;4944015;28;20079;-33
2024/01/09 07:15:10;;;;;;;7.07;5.00;;;;;;;14.53;40.88;103566.72;4945018;28;20048;-34
2024/01/09 07:17:37;;;;;;;5.57;4.22;;;;;;;14.65;40.14;103561.81;4944854;29;20054;-34
2024/01/09 07:20:05;;;;;;;7.15;4.38;;;;;;;14.77;39.84;103559.47;4944018;28;20062;-34
2024/01/09 07:22:31;;;;;;;6.25;4.13;;;;;;;14.87;40.13;103562.59;4940735;29;20445;-34
2024/01/09 07:24:58;;;;;;;6.13;4.25;;;;;;;14.95;40.46;103556.94;4943648;28;20093;-34
2024/01/09 07:27:24;;;;;;;6.30;4.65;;;;;;;15.03;39.92;103574.38;4942304;29;20451;-34
2024/01/09 07:29:51;;;;;;;7.13;4.97;;;;;;;15.12;39.31;103558.88;4944287;29;20137;-34
2024/01/09 07:32:18;;;;;;;5.35;4.05;;;;;;;15.21;39.53;103569.16;4945262;28;20138;-36
2024/01/09 07:34:44;;;;;;;7.35;4.85;;;;;;;15.29;40.08;103575.88;4944477;28;20794;-34
2024/01/09 07:37:11;;;;;;;7.70;4.35;;;;;;;15.37;39.56;103574.69;4948616;28;20431;-34
2024/01/09 07:39:38;;;;;;;6.53;4.25;;;;;;;15.45;39.19;103576.06;4943316;28;20055;-36
2024/01/09 07:42:04;;;;;;;5.30;3.90;;;;;;;15.52;38.71;103582.00;4942469;29;20137;-35
2024/01/09 07:44:31;;;;;;;5.60;3.97;;;;;;;15.58;39.43;103581.72;4942293;29;20336;-35
2024/01/09 07:46:57;;;;;;;5.72;4.32;;;;;;;15.64;38.52;103593.91;4941077;29;20060;-34
2024/01/09 07:49:24;;;;;;;5.72;4.20;;;;;;;15.70;38.84;103589.19;4942580;29;20400;-35
2024/01/09 07:51:51;;;;;;;5.90;4.18;;;;;;;15.76;38.36;103594.28;4940360;28;20131;-36
2024/01/09 07:54:17;;;;;;;6.13;4.20;;;;;;;15.82;39.05;103603.81;4939929;29;20163;-36
2024/01/09 07:56:44;;;;;;;6.00;4.15;;;;;;;15.86;38.82;103605.41;4940674;28;20051;-34
2024/01/09 07:59:11;;;;;;;5.13;3.97;;;;;;;15.91;39.18;103610.53;4940565;28;20130;-35
2024/01/09 08:01:37;;;;;;;5.63;4.15;;;;;;;15.94;38.08;103597.00;4944083;28;20363;-35
2024/01/09 08:04:06;;;;;;;5.93;4.25;;;;;;;15.99;38.86;103611.88;4942463;29;20071;-35
2024/01/09 08:06:33;;;;;;;5.72;3.97;;;;;;;16.04;38.11;103614.38;4940281;29;20102;-35
2024/01/09 08:09:00;;;;;;;6.15;4.15;;;;;;;16.09;38.11;103616.81;4941742;28;20063;-36
2024/01/09 08:11:27;;;;;;;5.47;4.05;;;;;;;16.11;38.93;103609.56;4939381;29;20083;-34
2024/01/09 08:13:53;;;;;;;6.63;4.07;;;;;;;16.15;38.66;103611.16;4941623;29;20047;-34
2024/01/09 08:16:20;;;;;;;5.13;3.67;;;;;;;16.17;38.95;103620.00;4939119;29;20052;-34
2024/01/09 08:18:46;;;;;;;6.90;4.55;;;;;;;16.21;38.30;103624.25;4940696;29;20079;-35
2024/01/09 08:21:13;;;;;;;6.78;4.07;;;;;;;16.23;38.91;103617.88;4945524;29;20058;-36
2024/01/09 08:23:40;;;;;;;4.82;3.63;;;;;;;16.25;38.58;103621.38;4941803;28;20414;-35
2024/01/09 08:26:06;;;;;;;5.50;4.13;;;;;;;16.29;39.11;103622.94;4945295;29;20051;-34
2024/01/09 08:28:33;;;;;;;5.35;4.00;;;;;;;16.32;38.59;103621.06;4944852;29;20048;-35
2024/01/09 08:31:00;;;;;;;4.55;3.75;;;;;;;16.35;38.03;103626.25;4947094;28;20102;-35
2024/01/09 08:33:28;;;;;;;4.82;3.60;;;;;;;16.38;38.91;103620.75;4944654;28;20105;-35
2024/01/09 08:35:58;;;;;;;5.43;4.07;;;;;;;16.41;37.85;103612.59;4940990;29;20059;-35
2024/01/09 08:38:25;;;;;;;5.97;3.60;;;;;;;16.43;38.26;103611.56;4940956;29;20063;-34
2024/01/09 08:40:55;;;;;;;5.35;3.55;;;;;;;16.46;38.86;103613.22;4948477;29;20083;-34
2024/01/09 08:43:22;;;;;;;5.00;3.58;;;;;;;16.50;38.16;103614.81;4940502;28;20051;-35
2024/01/09 08:45:49;;;;;;;5.70;4.05;;;;;;;16.54;38.87;103616.38;4946045;28;20047;-35
2024/01/09 08:48:17;;;;;;;4.43;3.30;;;;;;;16.59;38.72;103621.50;4946970;29;20122;-35
2024/01/09 08:50:44;;;;;;;5.47;3.72;;;;;;;16.64;38.61;103627.50;4944803;28;20044;-34
2024/01/09 08:53:10;;;;;;;4.38;3.08;;;;;;;16.69;38.94;103630.84;4945280;29;20051;-34
2024/01/09 08:55:37;;;;;;;5.00;3.67;;;;;;;16.74;39.12;103623.47;4943357;28;20118;-35
2024/01/09 08:58:04;;;;;;;4.82;3.50;;;;;;;16.78;39.50;103620.53;4943206;28;20099;-34
2024/01/09 09:00:30;;;;;;;3.75;2.80;;;;;;;16.84;39.79;103623.84;4944862;29;20427;-35
2024/01/09 09:02:59;;;;;;;4.88;3.47;;;;;;;16.89;39.88;103624.50;4942576;29;20118;-34
2024/01/09 09:05:26;;;;;;;5.13;3.72;;;;;;;16.92;40.13;103619.84;4945563;28;20387;-35
2024/01/09 09:07:53;;;;;;;3.85;3.03;;;;;;;16.97;39.99;103619.63;4943188;29;20471;-35
2024/01/09 09:10:20;;;;;;;4.75;3.50;;;;;;;17.01;39.69;103627.41;4942612;28;20063;-35
2024/01/09 09:12:47;;;;;;;4.07;3.13;;;;;;;17.05;40.38;103620.09;4943963;28;20062;-34
2024/01/09 09:15:13;;;;;;;5.10;3.83;;;;;;;17.09;40.22;103616.31;4938647;28;20056;-34
2024/01/09 09:17:40;;;;;;;4.38;3.15;;;;;;;17.11;39.65;103619.75;4945450;28;20519;-34
2024/01/09 09:20:07;;;;;;;4.50;3.63;;;;;;;17.15;40.25;103613.28;4942690;29;20055;-35
2024/01/09 09:22:35;;;;;;;4.40;2.70;;;;;;;17.17;40.25;103619.47;4940167;29;20628;-34
2024/01/09 09:25:02;;;;;;;5.00;3.15;;;;;;;17.17;40.39;103619.47;4944979;29;20051;-34
2024/01/09 09:27:29;;;;;;;4.68;3.15;;;;;;;17.17;40.22;103614.09;4945390;28;20047;-33
2024/01/09 09:29:55;;;;;;;4.50;2.90;;;;;;;17.15;40.26;103613.28;4942444;29;20229;-32
2024/01/09 09:32:22;;;;;;;4.43;3.05;;;;;;;17.13;40.21;103623.25;4940717;29;20043;-32
2024/01/09 09:34:49;;;;;;;3.50;2.80;;;;;;;17.11;41.09;103627.81;4944276;29;20051;-33
2024/01/09 09:37:18;;;;;;;4.22;3.08;;;;;;;17.09;41.67;103620.81;4944822;29;20167;-33
2024/01/09 09:39:44;;;;;;;4.75;2.90;;;;;;;17.07;41.86;103617.31;4943914;28;20066;-34
2024/01/09 09:42:11;;;;;;;4.53;3.15;;;;;;;17.04;41.44;103626.38;4942766;29;20047;-34
2024/01/09 09:44:38;;;;;;;4.47;3.33;;;;;;;17.01;42.05;103621.19;4943531;29;20051;-35
2024/01/09 09:47:08;;;;;;;5.68;3.17;;;;;;;17.00;41.78;103622.13;4946635;29;20062;-34
2024/01/09 09:49:37;;;;;;;4.55;3.20;;;;;;;16.97;41.97;103620.50;4943467;28;20083;-33
2024/01/09 09:52:05;;;;;;;3.83;2.80;;;;;;;16.97;42.48;103616.94;4946699;29;20352;-34
2024/01/09 09:54:31;;;;;;;4.50;2.72;;;;;;;16.95;42.32;103621.50;4948398;29;20059;-34
2024/01/09 09:56:58;;;;;;;3.65;2.58;;;;;;;16.95;43.34;103624.19;4945341;28;20087;-33
2024/01/09 09:59:25;;;;;;;4.72;3.40;;;;;;;16.95;42.92;103622.38;4943861;28;20383;-34
2024/01/09 10:01:52;;;;;;;3.85;2.90;;;;;;;16.95;42.86;103625.03;4947231;28;20048;-33
2024/01/09 10:04:24;;;;;;;4.07;3.22;;;;;;;16.97;43.13;103636.56;4947320;29;20158;-35
2024/01/09 10:06:54;;;;;;;4.15;2.75;;;;;;;16.99;43.32;103623.06;4944891;28;20443;-34
2024/01/09 10:09:21;;;;;;;5.53;2.75;;;;;;;17.02;43.08;103625.59;4945085;28;20052;-34
2024/01/09 10:11:49;;;;;;;3.50;2.67;;;;;;;17.02;43.19;103618.44;4944289;29;20090;-34
2024/01/09 10:14:16;;;;;;;3.22;2.40;;;;;;;17.05;43.27;103627.28;4946006;29;20543;-34
2024/01/09 10:16:50;;;;;;;3.75;2.72;;;;;;;17.06;44.22;103620.97;4943541;29;20048;-33
2024/01/09 10:19:17;;;;;;;3.30;2.53;;;;;;;17.08;43.54;103621.72;4945102;29;20505;-33
2024/01/09 10:21:44;;;;;;;3.75;2.78;;;;;;;17.11;44.17;103613.53;4944508;29;20146;-34
2024/01/09 10:24:11;;;;;;;3.80;2.67;;;;;;;17.11;43.92;103606.38;4943900;28;20055;-32
2024/01/09 10:26:38;;;;;;;3.15;2.50;;;;;;;17.14;44.72;103605.34;4943174;28;20051;-34
2024/01/09 10:29:12;;;;;;;4.03;2.80;;;;;;;17.15;43.82;103602.56;4937877;28;20052;-33
2024/01/09 10:31:44;;;;;;;3.60;2.50;;;;;;;17.16;44.39;103603.44;4939514;29;20059;-35
2024/01/09 10:34:11;;;;;;;3.85;2.60;;;;;;;17.18;43.99;103599.75;4947401;29;20328;-34
2024/01/09 10:36:38;;;;;;;2.70;2.25;;;;;;;17.20;44.29;103596.97;4944368;28;20062;-34
2024/01/09 10:39:06;;;;;;;3.95;2.80;;;;;;;17.21;44.12;103596.91;4941355;29;20086;-37
2024/01/09 10:41:33;;;;;;;3.22;2.45;;;;;;;17.21;44.01;103596.03;4938111;29;20436;-33
2024/01/09 10:44:00;;;;;;;3.30;2.35;;;;;;;17.24;44.38;103595.84;4942433;28;20146;-34
2024/01/09 10:46:31;;;;;;;2.42;2.10;;;;;;;17.24;44.27;103593.19;4947634;28;20047;-34
2024/01/09 10:48:58;;;;;;;3.10;2.45;;;;;;;17.25;44.49;103587.75;4931834;29;20059;-33
2024/01/09 10:51:26;;;;;;;4.13;2.40;;;;;;;17.26;44.35;103588.63;4942436;29;20063;-33
2024/01/09 10:53:53;;;;;;;2.70;2.08;;;;;;;17.27;44.17;103580.47;4944237;28;20103;-33
2024/01/09 10:56:21;;;;;;;2.53;2.00;;;;;;;17.27;44.65;103582.28;4945194;28;20350;-33
2024/01/09 10:58:49;;;;;;;3.78;2.63;;;;;;;17.28;44.78;103582.22;4943523;28;20134;-32
2024/01/09 11:01:16;;;;;;;3.17;2.47;;;;;;;17.28;44.44;103576.84;4946684;28;20055;-34
2024/01/09 11:03:44;;;;;;;3.58;2.50;;;;;;;17.29;43.96;103569.69;4943287;29;20043;-33
2024/01/09 11:06:13;;;;;;;3.03;2.20;;;;;;;17.28;44.21;103566.13;4946245;28;20051;-34
2024/01/09 11:08:43;;;;;;;3.25;2.50;;;;;;;17.30;43.88;103558.00;4945052;28;20624;-35
2024/01/09 11:11:13;;;;;;;2.97;2.28;;;;;;;17.31;43.65;103561.56;4947348;29;20069;-35
2024/01/09 11:13:46;;;;;;;2.75;1.83;;;;;;;17.30;43.85;103563.38;4948531;28;20489;-34
2024/01/09 11:16:15;;;;;;;3.35;2.15;;;;;;;17.30;44.38;103552.66;4945402;28;20094;-33
2024/01/09 11:18:43;;;;;;;2.78;1.92;;;;;;;17.31;43.88;103559.75;4945935;29;20077;-33
2024/01/09 11:21:11;;;;;;;3.13;2.20;;;;;;;17.30;44.29;103566.06;4945653;29;20157;-34
2024/01/09 11:23:45;;;;;;;3.25;1.90;;;;;;;17.32;43.61;103563.28;4947923;29;20043;-33